Dickinson Theodore Roosevelt Regional Airport
KDIK : rendu visible

Aérodrome :











RETROUVEZ-NOUS SUR...

 
LOGIN :

S'inscrire | Disclaimer

   EN    FR    IT 

 









Légende :    VFR   VFR Marginal   IFR   IFR Intensif   IFR Très Intensif
Visi : 
Plafond : 
>= 8 km
>= 3000ft
5 à 8 km
1000 à 3000 ft
1500m à 5 km
500 à 1000 ft
800 à 1500m
200 à 500 ft
< 800m
< 200 ft
Symboles :   Orages  Brouillard  Fortes neiges  Fortes précipitations  Vent > 20 kt






- Altitude de l'aérodrome : 2592 ft


KDIK - Dickinson Theodore Roosevelt Regional

DERNIER METAR :
  • 150656Z AUTO 17008KT 10SM CLR M01/M03 A3007 RMK AO2 SLP206 T10111028 400671033

METARs EXPIRÉS :
  • 150556Z AUTO 17006KT 10SM CLR M01/M03 A3007 RMK AO2 SLP208 T10061028 10028 21011 58004
  • 150456Z AUTO 18008KT 10SM CLR M01/M02 A3008 RMK AO2 SLP211 T10061022

TAF KDIK
Valide du 15 à 06h jusqu'au 16 à 06h UTC


150530Z 1506/1606 19004KT P6SM SCT200
FM151100 16005KT P6SM SCT070
FM151700 17010KT P6SM BKN200
FM160200 18011KT P6SM OVC200
FM160500 20009KT P6SM BKN150



MET'MAP, la Météo Aéronautique d'un coup d'oeil ! - Copyright ORBIFLY Décembre 2007 - Disclaimer

ORBIFLY MET'MAP TEAM :

Programmation & Développement : Alexandra Zaïnal
Conception & Développement : Baudouin d'Aumeries
Co-Programmation & Développement : Marc-Olivier Méhu
Soutien technique & logistique : Manuel Goepfert

Contact : metmap@orbifly.com




SOURCES & CREDITS :

   NOAA       Earth
Advisory